Time;durP1;ratioP1;P1;durP2;ratioP2;P2;SDS_P1;SDS_P2;PMS_P1;PMS_P2;Temp;Humidity;BMP_temperature;BMP_pressure;BME280_temperature;BME280_humidity;BME280_pressure;Samples;Min_cycle;Max_cycle;Signal;HPM_P1;HPM_P2
2023/12/21 00:01:50;;;;;;;52.93;31.13;;;;;;;4.26;93.19;98864.63;5092899;28;20199;-66
2023/12/21 00:04:17;;;;;;;49.20;30.20;;;;;;;4.28;92.81;98862.66;5093203;28;20199;-66
2023/12/21 00:06:44;;;;;;;50.07;31.67;;;;;;;4.28;92.71;98860.03;5092803;28;20694;-67
2023/12/21 00:09:10;;;;;;;48.27;30.47;;;;;;;4.20;92.97;98865.31;5093196;28;20252;-67
2023/12/21 00:11:38;;;;;;;51.80;30.60;;;;;;;4.14;93.36;98858.13;5092617;28;20252;-67
2023/12/21 00:14:04;;;;;;;51.20;30.87;;;;;;;4.04;93.21;98854.88;5093107;28;20252;-67
2023/12/21 00:16:31;;;;;;;45.67;28.90;;;;;;;3.89;93.49;98855.75;5092725;28;20199;-67
2023/12/21 00:18:59;;;;;;;45.70;29.17;;;;;;;3.76;94.06;98850.22;5092539;28;20662;-67
2023/12/21 00:21:26;;;;;;;46.50;29.37;;;;;;;3.44;95.56;98840.59;5092806;28;20187;-66
2023/12/21 00:23:53;;;;;;;50.77;30.00;;;;;;;3.43;95.78;98848.66;5092356;28;20719;-67
2023/12/21 00:26:19;;;;;;;46.53;29.93;;;;;;;3.33;96.36;98848.81;5092165;28;20656;-66
2023/12/21 00:28:46;;;;;;;44.83;28.23;;;;;;;3.37;96.25;98854.56;5092224;28;20195;-66
2023/12/21 00:31:13;;;;;;;46.00;29.80;;;;;;;3.38;97.09;98846.50;5092612;28;20195;-67
2023/12/21 00:33:39;;;;;;;47.27;29.57;;;;;;;3.47;96.19;98842.88;5092461;28;20234;-67
2023/12/21 00:36:08;;;;;;;53.50;30.63;;;;;;;3.52;96.02;98847.66;5089778;28;20445;-66
2023/12/21 00:38:34;;;;;;;54.63;31.33;;;;;;;3.35;95.88;98846.03;5072043;28;20191;-67
2023/12/21 00:41:01;;;;;;;50.93;31.80;;;;;;;3.15;96.55;98860.50;5071949;28;20937;-67
2023/12/21 00:43:28;;;;;;;50.40;30.50;;;;;;;3.21;96.21;98854.56;5072349;28;20446;-67
2023/12/21 00:45:54;;;;;;;49.73;29.67;;;;;;;3.27;97.64;98846.06;5072124;28;20253;-67
2023/12/21 00:48:21;;;;;;;54.00;30.80;;;;;;;3.31;96.59;98856.03;5071894;28;20192;-67
2023/12/21 00:50:48;;;;;;;49.27;30.50;;;;;;;3.37;96.81;98851.94;5071852;28;20434;-67
2023/12/21 00:53:17;;;;;;;55.30;33.07;;;;;;;3.37;96.04;98839.63;5072196;28;20442;-67
2023/12/21 00:55:44;;;;;;;57.10;33.50;;;;;;;3.36;95.44;98855.53;5088361;28;20203;-67
2023/12/21 00:58:11;;;;;;;58.13;32.77;;;;;;;3.33;95.65;98843.56;5091920;28;20659;-67
2023/12/21 01:00:37;;;;;;;59.10;34.17;;;;;;;3.26;96.04;98842.59;5091899;28;20502;-67
2023/12/21 01:03:05;;;;;;;62.70;34.90;;;;;;;3.25;95.91;98833.09;5092090;28;20437;-69
2023/12/21 01:05:32;;;;;;;70.80;35.70;;;;;;;3.16;96.16;98830.63;5091816;28;20194;-67
2023/12/21 01:07:59;;;;;;;55.23;33.20;;;;;;;3.11;96.67;98833.75;5091382;28;20529;-67
2023/12/21 01:10:27;;;;;;;49.90;31.37;;;;;;;3.07;96.91;98832.44;5091791;28;20437;-68
2023/12/21 01:12:55;;;;;;;52.67;30.07;;;;;;;3.04;97.01;98832.78;5091682;28;20194;-67
2023/12/21 01:15:22;;;;;;;47.23;29.53;;;;;;;2.98;97.77;98838.66;5092033;28;20482;-67
2023/12/21 01:17:49;;;;;;;48.83;28.77;;;;;;;2.78;97.97;98836.56;5091876;28;20445;-67
2023/12/21 01:20:16;;;;;;;51.57;29.73;;;;;;;2.79;98.44;98828.53;5091720;28;20482;-68
2023/12/21 01:22:42;;;;;;;51.67;29.10;;;;;;;2.84;98.45;98831.47;5091788;28;20487;-68
2023/12/21 01:25:09;;;;;;;47.03;28.90;;;;;;;2.96;99.53;98831.94;5091642;28;21049;-68
2023/12/21 01:27:37;;;;;;;47.50;28.83;;;;;;;3.07;99.73;98821.13;5091517;28;20480;-68
2023/12/21 01:30:05;;;;;;;47.50;28.13;;;;;;;3.15;99.03;98814.06;5092009;28;20439;-68
2023/12/21 01:32:31;;;;;;;45.47;28.73;;;;;;;3.24;98.72;98813.09;5091879;28;20460;-68
2023/12/21 01:34:58;;;;;;;47.53;29.23;;;;;;;3.30;97.77;98807.16;5091564;28;20506;-68
2023/12/21 01:37:25;;;;;;;49.97;30.17;;;;;;;3.36;96.82;98811.75;5078320;28;20579;-68
2023/12/21 01:39:52;;;;;;;47.07;28.43;;;;;;;3.39;96.04;98811.41;5071626;28;20260;-68
2023/12/21 01:42:19;;;;;;;45.00;28.60;;;;;;;3.37;95.61;98808.16;5071536;28;20192;-66
2023/12/21 01:44:47;;;;;;;44.03;27.27;;;;;;;3.35;94.97;98807.47;5071309;28;21014;-66
2023/12/21 01:47:14;;;;;;;40.67;26.47;;;;;;;3.35;94.99;98802.22;5071402;28;20223;-66
2023/12/21 01:49:41;;;;;;;46.93;28.37;;;;;;;3.34;95.13;98797.13;5071254;28;20261;-66
2023/12/21 01:52:09;;;;;;;41.73;26.63;;;;;;;3.27;95.30;98797.00;5071172;28;20941;-67
2023/12/21 01:54:37;;;;;;;40.30;25.67;;;;;;;3.30;96.63;98780.94;5071245;28;20200;-66
2023/12/21 01:57:04;;;;;;;38.70;25.97;;;;;;;3.35;96.38;98783.84;5071432;28;20225;-67
2023/12/21 01:59:31;;;;;;;42.27;26.13;;;;;;;3.38;96.67;98783.53;5071394;28;20453;-66
2023/12/21 02:01:59;;;;;;;43.37;25.57;;;;;;;3.43;96.67;98775.97;5071281;28;20438;-67
2023/12/21 02:04:26;;;;;;;41.00;25.67;;;;;;;3.44;95.68;98772.34;5071378;28;20438;-67
2023/12/21 02:06:52;;;;;;;43.70;26.60;;;;;;;3.46;95.30;98770.38;5071258;28;20653;-67
2023/12/21 02:09:18;;;;;;;37.73;26.17;;;;;;;3.48;94.84;98773.66;5071404;28;20191;-66
2023/12/21 02:11:47;;;;;;;37.40;25.23;;;;;;;3.51;95.28;98773.31;5071272;28;20871;-67
2023/12/21 02:14:13;;;;;;;36.90;22.67;;;;;;;3.54;94.63;98774.78;5071010;28;20196;-67
2023/12/21 02:16:48;;;;;;;32.27;21.00;;;;;;;3.55;94.10;98769.38;5070879;28;20200;-67
2023/12/21 02:19:19;;;;;;;36.77;21.10;;;;;;;3.61;94.75;98766.06;5074337;28;20430;-67
2023/12/21 02:21:47;;;;;;;28.73;19.23;;;;;;;3.66;94.69;98757.66;5074919;28;20184;-67
2023/12/21 02:24:15;;;;;;;25.77;18.53;;;;;;;3.71;94.53;98758.81;5074676;28;20199;-67
2023/12/21 02:26:42;;;;;;;28.07;18.27;;;;;;;3.76;94.62;98756.47;5074641;28;20433;-67
2023/12/21 02:29:09;;;;;;;27.60;17.13;;;;;;;3.78;93.65;98748.44;5074498;28;20257;-67
2023/12/21 02:31:36;;;;;;;22.90;16.90;;;;;;;3.84;93.65;98753.00;5074308;28;20187;-67
2023/12/21 02:34:06;;;;;;;17.93;14.33;;;;;;;3.91;94.30;98746.06;5074466;28;20192;-67
2023/12/21 02:36:32;;;;;;;16.77;13.30;;;;;;;3.99;94.04;98744.22;5074545;28;20188;-67
2023/12/21 02:38:59;;;;;;;16.30;12.77;;;;;;;4.04;93.53;98752.41;5084886;28;20199;-68
2023/12/21 02:41:27;;;;;;;14.80;11.77;;;;;;;4.11;93.74;98749.91;5094523;28;20225;-67
2023/12/21 02:43:54;;;;;;;11.67;10.47;;;;;;;4.16;93.42;98753.66;5094356;28;20475;-68
2023/12/21 02:46:22;;;;;;;11.10;9.70;;;;;;;4.15;92.91;98752.00;5094694;28;20377;-68
2023/12/21 02:48:48;;;;;;;11.50;10.37;;;;;;;4.18;92.32;98756.94;5094156;28;20219;-68
2023/12/21 02:51:15;;;;;;;15.30;10.77;;;;;;;4.20;92.23;98747.03;5094625;28;20202;-68
2023/12/21 02:53:42;;;;;;;12.30;9.97;;;;;;;4.27;91.72;98753.25;5094427;28;20195;-68
2023/12/21 02:56:09;;;;;;;11.60;9.07;;;;;;;4.22;90.65;98747.72;5094185;28;20655;-67
2023/12/21 02:58:37;;;;;;;13.27;9.63;;;;;;;4.33;91.08;98744.66;5094674;28;20195;-67
2023/12/21 03:01:04;;;;;;;10.97;8.83;;;;;;;4.40;90.70;98750.84;5094299;28;21002;-67
2023/12/21 03:03:31;;;;;;;11.30;8.73;;;;;;;4.50;90.58;98746.16;5094274;28;20203;-67
2023/12/21 03:05:58;;;;;;;8.87;7.90;;;;;;;4.56;89.64;98745.47;5094427;28;20966;-67
2023/12/21 03:08:24;;;;;;;11.47;8.90;;;;;;;4.61;89.22;98750.19;5094064;28;20223;-67
2023/12/21 03:10:51;;;;;;;11.67;9.10;;;;;;;4.47;88.96;98750.97;5094249;28;20191;-67
2023/12/21 03:13:18;;;;;;;8.90;8.00;;;;;;;4.46;89.33;98744.88;5093763;28;20234;-67
2023/12/21 03:15:46;;;;;;;9.80;8.80;;;;;;;4.49;89.08;98743.72;5093826;28;20543;-67
2023/12/21 03:18:13;;;;;;;8.33;7.63;;;;;;;4.58;89.07;98737.41;5094076;28;20198;-67
2023/12/21 03:20:39;;;;;;;8.50;7.63;;;;;;;4.78;88.13;98739.38;5093706;28;20658;-67
2023/12/21 03:23:06;;;;;;;6.97;6.37;;;;;;;5.01;87.28;98745.41;5093955;28;20195;-67
2023/12/21 03:25:33;;;;;;;7.03;6.53;;;;;;;5.12;86.22;98741.53;5094215;28;20199;-67
2023/12/21 03:28:00;;;;;;;5.23;4.83;;;;;;;5.18;85.54;98741.63;5093407;28;20702;-67
2023/12/21 03:30:27;;;;;;;4.63;4.33;;;;;;;5.13;85.34;98730.81;5092593;28;20222;-67
2023/12/21 03:32:55;;;;;;;5.50;5.10;;;;;;;5.14;85.22;98736.88;5093554;28;20280;-66
2023/12/21 03:35:21;;;;;;;5.00;4.60;;;;;;;4.96;86.00;98737.25;5093763;28;20204;-66
2023/12/21 03:37:48;;;;;;;5.23;4.83;;;;;;;4.99;86.26;98733.44;5093636;28;20194;-66
2023/12/21 03:40:15;;;;;;;6.33;5.07;;;;;;;4.95;86.09;98742.69;5093397;28;20192;-66
2023/12/21 03:42:42;;;;;;;4.47;4.07;;;;;;;4.95;85.89;98732.16;5093295;28;20655;-67
2023/12/21 03:45:09;;;;;;;4.40;4.10;;;;;;;4.93;86.12;98739.41;5093387;28;20191;-67
2023/12/21 03:47:36;;;;;;;5.97;4.50;;;;;;;4.86;86.00;98736.66;5093112;28;20827;-67
2023/12/21 03:50:05;;;;;;;6.23;5.63;;;;;;;4.86;86.39;98728.78;5093608;28;20251;-67
2023/12/21 03:52:31;;;;;;;5.60;5.20;;;;;;;4.95;85.89;98740.84;5093479;28;20194;-66
2023/12/21 03:54:58;;;;;;;5.80;5.40;;;;;;;5.06;85.38;98743.06;5093229;28;20191;-66
2023/12/21 03:57:25;;;;;;;7.97;6.27;;;;;;;5.19;84.91;98737.97;5093049;28;20221;-66
2023/12/21 03:59:51;;;;;;;6.63;6.07;;;;;;;5.23;84.27;98734.00;5092979;28;20204;-66
2023/12/21 04:02:18;;;;;;;5.90;5.40;;;;;;;5.31;83.74;98733.09;5092874;28;20613;-66
2023/12/21 04:04:45;;;;;;;6.00;5.50;;;;;;;5.34;84.02;98730.09;5093117;28;20192;-65
2023/12/21 04:07:13;;;;;;;5.73;5.37;;;;;;;5.27;83.81;98726.56;5092789;28;20199;-66
2023/12/21 04:09:40;;;;;;;5.67;5.27;;;;;;;5.35;83.25;98737.81;5092699;28;20199;-66
2023/12/21 04:12:07;;;;;;;4.90;4.60;;;;;;;5.51;82.85;98745.53;5092951;28;20188;-66
2023/12/21 04:14:34;;;;;;;5.10;4.70;;;;;;;5.54;82.11;98742.53;5092988;28;20227;-66
2023/12/21 04:17:01;;;;;;;6.80;6.20;;;;;;;5.65;82.02;98744.69;5092636;28;20740;-66
2023/12/21 04:19:27;;;;;;;8.50;5.67;;;;;;;5.83;81.31;98751.47;5092800;28;20187;-66
2023/12/21 04:21:54;;;;;;;6.93;6.33;;;;;;;5.96;81.12;98754.25;5092941;28;20189;-66
2023/12/21 04:24:22;;;;;;;14.53;8.27;;;;;;;6.08;80.57;98755.41;5092849;28;20199;-66
2023/12/21 04:26:49;;;;;;;8.00;7.00;;;;;;;6.20;80.02;98761.84;5092777;28;20187;-66
2023/12/21 04:29:16;;;;;;;7.27;6.33;;;;;;;6.35;79.63;98757.31;5092206;28;20226;-67
2023/12/21 04:31:44;;;;;;;7.13;6.43;;;;;;;6.35;79.64;98759.94;5092298;28;20191;-67
2023/12/21 04:34:11;;;;;;;7.07;6.33;;;;;;;6.44;78.79;98756.19;5092940;28;20222;-67
2023/12/21 04:36:37;;;;;;;7.33;6.60;;;;;;;6.56;78.07;98765.22;5085908;28;20552;-67
2023/12/21 04:39:04;;;;;;;6.47;5.83;;;;;;;6.60;77.88;98753.28;5071909;28;20200;-67
2023/12/21 04:41:32;;;;;;;5.60;5.23;;;;;;;6.67;77.05;98759.47;5072007;28;20196;-67
2023/12/21 04:44:00;;;;;;;6.70;6.20;;;;;;;6.67;77.10;98762.09;5071864;28;20197;-67
2023/12/21 04:46:26;;;;;;;4.80;4.50;;;;;;;6.69;76.96;98760.09;5071921;28;20627;-67
2023/12/21 04:48:53;;;;;;;6.30;5.67;;;;;;;6.74;77.03;98762.97;5072040;28;20222;-67
2023/12/21 04:51:20;;;;;;;7.50;6.80;;;;;;;6.69;77.29;98768.81;5072150;28;20686;-67
2023/12/21 04:53:46;;;;;;;6.87;6.13;;;;;;;6.73;77.00;98767.44;5072089;28;20194;-67
2023/12/21 04:56:13;;;;;;;8.33;7.43;;;;;;;6.75;76.86;98776.00;5072179;28;20249;-66
2023/12/21 04:58:42;;;;;;;6.97;6.37;;;;;;;6.70;76.32;98777.56;5071834;28;20196;-67
2023/12/21 05:01:09;;;;;;;9.03;7.73;;;;;;;6.67;76.97;98777.94;5072001;28;20248;-67
2023/12/21 05:03:36;;;;;;;8.60;7.77;;;;;;;6.73;77.47;98793.81;5072051;28;20202;-67
2023/12/21 05:06:03;;;;;;;10.00;9.00;;;;;;;6.68;78.34;98790.09;5071494;28;20190;-66
2023/12/21 05:08:29;;;;;;;9.80;8.70;;;;;;;6.69;78.11;98789.13;5071367;28;20635;-67
2023/12/21 05:10:56;;;;;;;10.47;8.87;;;;;;;6.59;78.00;98785.97;5071508;28;20199;-67
2023/12/21 05:13:23;;;;;;;11.23;10.07;;;;;;;6.51;78.53;98788.72;5071354;28;20192;-66
2023/12/21 05:15:51;;;;;;;14.87;10.37;;;;;;;6.54;78.86;98788.34;5071472;28;20192;-67
2023/12/21 05:18:18;;;;;;;12.90;10.20;;;;;;;6.50;78.95;98797.66;5071409;28;20225;-67
2023/12/21 05:20:44;;;;;;;11.83;10.30;;;;;;;6.42;79.58;98792.50;5071528;28;20198;-67
2023/12/21 05:23:11;;;;;;;13.33;11.57;;;;;;;6.36;79.91;98785.34;5071943;28;20626;-66
2023/12/21 05:25:38;;;;;;;15.20;12.23;;;;;;;6.31;79.87;98785.88;5071635;28;20195;-63
2023/12/21 05:28:05;;;;;;;12.77;11.47;;;;;;;6.21;80.96;98777.44;5071668;28;20225;-63
2023/12/21 05:30:31;;;;;;;16.47;12.13;;;;;;;6.19;81.16;98783.91;5071528;28;20196;-63
2023/12/21 05:32:59;;;;;;;20.87;13.43;;;;;;;6.25;81.45;98783.19;5071557;28;20790;-63
2023/12/21 05:35:26;;;;;;;16.47;13.07;;;;;;;6.20;81.84;98775.00;5071660;28;20195;-63
2023/12/21 05:37:53;;;;;;;15.93;13.30;;;;;;;6.22;82.12;98778.25;5088394;28;20666;-62
2023/12/21 05:40:22;;;;;;;16.53;12.87;;;;;;;6.14;82.29;98759.91;5091710;28;20194;-63
2023/12/21 05:42:48;;;;;;;17.63;13.50;;;;;;;6.04;82.61;98764.69;5091679;28;20253;-63
2023/12/21 05:45:15;;;;;;;21.77;15.83;;;;;;;6.03;83.03;98784.13;5090692;28;20260;-62
2023/12/21 05:47:42;;;;;;;21.23;14.87;;;;;;;5.97;83.01;98766.41;5082528;28;20195;-65
2023/12/21 05:50:11;;;;;;;18.57;14.20;;;;;;;5.98;83.33;98782.03;5090416;28;20245;-63
2023/12/21 05:52:37;;;;;;;21.63;15.30;;;;;;;5.96;83.71;98778.75;5091261;28;20622;-63
2023/12/21 05:55:05;;;;;;;20.63;16.83;;;;;;;5.94;84.06;98774.69;5093191;28;20252;-63
2023/12/21 05:57:31;;;;;;;18.80;15.37;;;;;;;5.95;83.65;98776.34;5093196;28;20199;-65
2023/12/21 05:59:58;;;;;;;20.07;15.00;;;;;;;5.78;84.71;98776.50;5088378;28;20702;-65
2023/12/21 06:02:25;;;;;;;19.87;16.60;;;;;;;5.69;85.27;98772.31;5082739;28;20195;-66
2023/12/21 06:04:52;;;;;;;22.27;15.90;;;;;;;5.70;85.69;98779.22;5074913;28;20193;-65
2023/12/21 06:07:20;;;;;;;20.60;16.40;;;;;;;5.64;85.85;98776.50;5073268;28;20200;-65
2023/12/21 06:09:46;;;;;;;17.50;14.97;;;;;;;5.65;85.54;98773.66;5079105;28;20709;-65
2023/12/21 06:12:13;;;;;;;21.77;16.93;;;;;;;5.72;85.55;98776.44;5082726;28;20252;-65
2023/12/21 06:14:40;;;;;;;23.10;16.93;;;;;;;5.74;85.65;98780.50;5091313;28;20713;-65
2023/12/21 06:17:07;;;;;;;24.83;16.87;;;;;;;5.85;85.26;98786.34;5081315;28;20200;-65
2023/12/21 06:19:34;;;;;;;23.80;17.33;;;;;;;5.93;84.47;98776.53;5081750;28;20574;-65
2023/12/21 06:22:00;;;;;;;27.83;18.60;;;;;;;6.06;84.12;98779.31;5115210;28;20249;-64
2023/12/21 06:24:29;;;;;;;29.03;21.23;;;;;;;6.07;84.44;98785.38;5085395;27;20238;-65
2023/12/21 06:26:55;;;;;;;37.47;26.53;;;;;;;6.19;83.51;98789.19;5090707;28;20187;-65
2023/12/21 06:29:22;;;;;;;26.07;19.43;;;;;;;6.26;82.85;98795.34;5085341;28;20246;-66
2023/12/21 06:31:49;;;;;;;30.03;21.30;;;;;;;6.38;82.84;98799.13;5071814;28;20193;-64
2023/12/21 06:34:15;;;;;;;23.63;18.70;;;;;;;6.51;82.69;98808.03;5075845;28;20243;-64
2023/12/21 06:36:42;;;;;;;28.70;22.17;;;;;;;6.62;81.55;98811.97;5082635;28;20588;-63
2023/12/21 06:39:09;;;;;;;17.40;15.20;;;;;;;6.63;81.27;98808.34;5080415;28;20261;-64
2023/12/21 06:41:37;;;;;;;22.87;16.87;;;;;;;6.82;81.48;98823.56;5078678;28;20192;-63
2023/12/21 06:44:04;;;;;;;23.47;17.80;;;;;;;6.82;80.46;98819.06;5071909;28;20193;-63
2023/12/21 06:46:30;;;;;;;27.10;22.27;;;;;;;6.99;79.65;98819.66;5074252;28;20245;-64
2023/12/21 06:48:57;;;;;;;25.97;20.23;;;;;;;7.15;79.27;98829.94;5080020;28;20737;-64
2023/12/21 06:51:24;;;;;;;29.27;20.67;;;;;;;7.28;78.44;98835.34;5082936;28;20233;-63
2023/12/21 06:53:51;;;;;;;113.30;67.90;;;;;;;7.39;78.41;98837.47;5081753;28;20194;-63
2023/12/21 06:56:18;;;;;;;46.20;33.67;;;;;;;7.62;76.80;98848.59;5084063;28;20196;-62
2023/12/21 06:58:46;;;;;;;44.40;31.87;;;;;;;7.67;77.10;98851.50;5080874;28;20286;-64
2023/12/21 07:01:13;;;;;;;54.53;37.00;;;;;;;7.73;76.41;98842.78;5086954;28;20259;-63
2023/12/21 07:03:40;;;;;;;42.97;30.60;;;;;;;7.89;75.87;98839.84;5081048;28;20250;-65
2023/12/21 07:06:09;;;;;;;26.70;19.73;;;;;;;7.87;76.01;98863.00;5083968;28;20624;-64
2023/12/21 07:08:36;;;;;;;26.50;21.20;;;;;;;7.96;75.37;98846.78;5081810;28;20360;-65
2023/12/21 07:11:03;;;;;;;24.40;20.10;;;;;;;8.09;74.76;98846.03;5084306;28;20262;-63
2023/12/21 07:13:29;;;;;;;36.80;26.07;;;;;;;8.12;74.79;98856.22;5082406;28;20188;-64
2023/12/21 07:15:57;;;;;;;29.23;22.20;;;;;;;8.28;74.07;98856.75;5082194;28;20190;-66
2023/12/21 07:18:24;;;;;;;26.40;20.57;;;;;;;8.48;74.09;98856.81;5082930;28;20200;-65
2023/12/21 07:20:51;;;;;;;31.90;20.80;;;;;;;8.54;73.98;98866.63;5085374;28;20933;-67
2023/12/21 07:23:18;;;;;;;45.03;25.07;;;;;;;8.64;73.67;98867.88;5082269;28;20203;-65
2023/12/21 07:25:45;;;;;;;23.63;17.50;;;;;;;8.72;72.84;98869.53;5082222;28;20203;-67
2023/12/21 07:28:12;;;;;;;50.23;33.17;;;;;;;8.71;72.46;98858.13;5079601;28;20637;-64
2023/12/21 07:30:39;;;;;;;39.57;28.80;;;;;;;8.77;72.20;98877.69;5075176;28;20187;-66
2023/12/21 07:33:07;;;;;;;30.80;21.40;;;;;;;8.97;71.79;98867.97;5078680;28;20216;-65
2023/12/21 07:35:34;;;;;;;24.13;17.93;;;;;;;9.11;70.71;98862.47;5082804;28;20252;-65
2023/12/21 07:38:01;;;;;;;20.63;17.43;;;;;;;9.43;70.06;98874.13;5087589;28;20245;-67
2023/12/21 07:40:28;;;;;;;32.70;24.13;;;;;;;9.41;69.50;98871.69;5089250;28;20252;-65
2023/12/21 07:42:55;;;;;;;35.83;27.37;;;;;;;9.48;70.04;98871.69;5084166;28;20725;-65
2023/12/21 07:45:21;;;;;;;25.00;19.10;;;;;;;9.51;69.60;98865.97;5078241;28;20218;-65
2023/12/21 07:47:48;;;;;;;26.53;19.27;;;;;;;9.56;69.44;98879.44;5079681;28;20200;-68
2023/12/21 07:50:16;;;;;;;20.83;15.40;;;;;;;9.63;69.17;98881.06;5085751;28;20827;-66
2023/12/21 07:52:43;;;;;;;23.70;18.77;;;;;;;9.64;69.36;98884.53;5086461;28;20195;-65
2023/12/21 07:55:10;;;;;;;113.07;77.77;;;;;;;9.73;69.00;98875.34;5076603;28;20565;-65
2023/12/21 07:57:37;;;;;;;42.23;32.37;;;;;;;9.77;68.82;98877.38;5080730;28;20187;-64
2023/12/21 08:00:04;;;;;;;29.67;19.57;;;;;;;9.64;69.11;98882.69;5100733;28;20202;-63
2023/12/21 08:02:30;;;;;;;22.80;15.93;;;;;;;9.76;68.66;98891.66;5081086;28;20203;-64
2023/12/21 08:04:58;;;;;;;13.20;11.93;;;;;;;9.64;68.38;98877.38;5084445;28;20693;-65
2023/12/21 08:07:26;;;;;;;14.83;13.23;;;;;;;9.84;68.35;98885.31;5089742;28;20195;-64
2023/12/21 08:09:53;;;;;;;17.27;13.83;;;;;;;9.92;67.55;98890.41;5087020;28;20211;-64
2023/12/21 08:12:20;;;;;;;13.93;12.53;;;;;;;10.09;66.78;98886.34;5080480;28;20753;-64
2023/12/21 08:14:46;;;;;;;18.93;13.10;;;;;;;10.10;67.26;98880.00;5079673;28;20272;-66
2023/12/21 08:17:14;;;;;;;14.03;12.10;;;;;;;10.29;66.63;98884.44;5079475;28;20188;-64
2023/12/21 08:19:40;;;;;;;16.43;12.97;;;;;;;10.27;66.30;98874.06;5082135;28;20854;-64
2023/12/21 08:22:09;;;;;;;14.93;12.80;;;;;;;10.39;66.53;98882.16;5084233;28;20206;-65
2023/12/21 08:24:37;;;;;;;29.80;19.90;;;;;;;10.42;65.94;98879.09;5083798;28;20191;-64
2023/12/21 08:27:06;;;;;;;13.90;11.67;;;;;;;10.34;65.74;98884.66;5080301;28;20696;-67
2023/12/21 08:29:32;;;;;;;19.77;15.57;;;;;;;10.36;66.13;98882.59;5074912;28;20660;-66
2023/12/21 08:32:00;;;;;;;20.03;14.60;;;;;;;10.48;65.13;98888.88;5078104;28;20228;-65
2023/12/21 08:34:27;;;;;;;15.90;14.20;;;;;;;10.50;64.82;98874.34;5079113;28;20184;-64
2023/12/21 08:36:54;;;;;;;26.43;19.57;;;;;;;10.61;65.42;98872.88;5078174;28;20248;-66
2023/12/21 08:39:21;;;;;;;27.33;19.97;;;;;;;10.72;64.41;98874.88;5090118;28;21184;-66
2023/12/21 08:41:49;;;;;;;21.60;17.17;;;;;;;10.74;63.77;98870.97;5080633;28;20192;-65
2023/12/21 08:44:15;;;;;;;12.33;11.13;;;;;;;10.78;63.54;98872.19;5070759;28;20560;-65
2023/12/21 08:46:43;;;;;;;14.07;12.50;;;;;;;10.76;63.97;98868.13;5073143;28;20199;-65
2023/12/21 08:49:11;;;;;;;13.97;10.67;;;;;;;10.65;64.87;98871.44;5088995;28;20300;-66
2023/12/21 08:51:38;;;;;;;16.17;12.47;;;;;;;10.76;64.30;98873.44;5078453;28;20196;-66
2023/12/21 08:54:06;;;;;;;10.57;9.57;;;;;;;10.72;63.49;98873.06;5078747;28;20271;-69
2023/12/21 08:56:33;;;;;;;13.30;11.20;;;;;;;10.76;63.79;98865.47;5079623;28;20188;-66
2023/12/21 08:59:02;;;;;;;16.43;12.17;;;;;;;10.94;63.67;98855.75;5080237;28;20282;-66
2023/12/21 09:01:30;;;;;;;16.00;13.77;;;;;;;11.00;62.97;98851.44;5080840;28;20193;-69
2023/12/21 09:03:58;;;;;;;16.73;15.07;;;;;;;11.05;62.67;98856.91;5079539;28;20243;-66
2023/12/21 09:06:24;;;;;;;19.47;15.23;;;;;;;11.27;62.31;98847.53;5079029;28;20204;-67
2023/12/21 09:08:51;;;;;;;14.47;12.27;;;;;;;11.27;61.88;98849.41;5077018;28;20366;-64
2023/12/21 09:11:18;;;;;;;20.73;15.23;;;;;;;11.50;61.53;98838.97;5090306;28;20656;-67
2023/12/21 09:13:44;;;;;;;22.80;15.70;;;;;;;11.61;60.44;98836.47;5090337;28;20205;-64
2023/12/21 09:16:14;;;;;;;12.60;11.10;;;;;;;11.68;60.48;98837.19;5089995;28;20204;-65
2023/12/21 09:18:43;;;;;;;18.00;12.63;;;;;;;12.00;59.76;98820.09;5089877;28;20216;-65
2023/12/21 09:21:11;;;;;;;10.70;9.53;;;;;;;12.20;57.59;98831.34;5089798;28;20197;-65
2023/12/21 09:23:37;;;;;;;14.70;10.60;;;;;;;11.68;59.36;98810.59;5090289;28;20203;-65
2023/12/21 09:26:04;;;;;;;11.47;9.40;;;;;;;11.82;59.00;98793.50;5090335;28;20202;-63
2023/12/21 09:28:31;;;;;;;18.93;13.33;;;;;;;12.10;57.92;98788.47;5092644;28;20219;-64
2023/12/21 09:30:58;;;;;;;28.47;12.70;;;;;;;12.16;57.42;98787.56;5081041;28;20213;-63
2023/12/21 09:33:26;;;;;;;18.80;12.10;;;;;;;12.35;56.76;98781.19;5073168;28;20709;-66
2023/12/21 09:35:55;;;;;;;16.97;10.40;;;;;;;12.21;56.92;98779.72;5073831;28;20237;-65
2023/12/21 09:38:21;;;;;;;14.73;10.13;;;;;;;12.12;56.69;98770.41;5080821;28;20545;-65
2023/12/21 09:40:48;;;;;;;16.77;10.93;;;;;;;11.93;57.19;98775.97;5076545;28;20240;-65
2023/12/21 09:43:18;;;;;;;13.73;10.80;;;;;;;11.94;58.41;98767.78;5071358;28;20244;-64
2023/12/21 09:45:47;;;;;;;14.27;10.83;;;;;;;11.87;59.12;98756.38;5087636;28;20191;-65
2023/12/21 09:48:16;;;;;;;13.43;11.47;;;;;;;11.87;59.12;98753.72;5093360;28;20209;-65
2023/12/21 09:50:45;;;;;;;15.63;13.10;;;;;;;11.97;59.92;98751.34;5079975;28;20225;-62
2023/12/21 09:53:13;;;;;;;19.10;11.93;;;;;;;11.93;67.11;98728.91;5077320;28;20225;-61
2023/12/21 09:55:42;;;;;;;39.20;17.70;;;;;;;12.06;60.34;98744.69;5072931;28;20285;-62
2023/12/21 09:58:10;;;;;;;196.30;67.83;;;;;;;12.12;59.29;98738.47;5091051;28;20266;-61
2023/12/21 10:00:36;;;;;;;62.17;36.23;;;;;;;12.08;59.06;98734.63;5087205;28;20288;-62
2023/12/21 10:03:05;;;;;;;24.47;15.03;;;;;;;12.28;60.03;98729.88;5094871;28;20206;-64
2023/12/21 10:05:32;;;;;;;19.53;12.60;;;;;;;12.24;58.63;98741.19;5095087;28;20194;-65
2023/12/21 10:08:00;;;;;;;12.70;10.03;;;;;;;12.16;59.64;98723.66;5094444;28;20642;-65
2023/12/21 10:10:27;;;;;;;12.67;8.53;;;;;;;12.23;59.46;98724.41;5093079;28;20222;-62
2023/12/21 10:12:54;;;;;;;14.33;11.27;;;;;;;12.45;59.23;98706.88;5094173;28;20269;-64
2023/12/21 10:15:21;;;;;;;59.20;33.97;;;;;;;12.62;58.66;98705.19;5094782;28;20252;-63
2023/12/21 10:17:48;;;;;;;16.80;13.63;;;;;;;12.69;58.79;98708.56;5094639;28;20187;-63
2023/12/21 10:20:14;;;;;;;12.60;10.33;;;;;;;12.69;58.34;98707.75;5094779;28;20238;-66
2023/12/21 10:22:43;;;;;;;11.93;9.77;;;;;;;12.48;58.16;98706.44;5095000;28;20195;-67
2023/12/21 10:25:12;;;;;;;13.47;11.20;;;;;;;12.47;58.13;98682.69;5094935;28;20217;-67
2023/12/21 10:27:40;;;;;;;11.20;9.90;;;;;;;12.61;57.75;98692.91;5090747;28;20666;-67
2023/12/21 10:30:08;;;;;;;18.13;10.37;;;;;;;12.71;58.12;98687.03;5083029;28;20694;-66
2023/12/21 10:32:34;;;;;;;14.70;8.87;;;;;;;12.75;58.16;98683.69;5074196;28;20247;-67
2023/12/21 10:35:01;;;;;;;19.90;9.17;;;;;;;12.70;58.03;98688.88;5088530;28;20264;-66
2023/12/21 10:37:28;;;;;;;42.90;10.80;;;;;;;12.74;58.32;98678.59;5094278;28;20194;-67
2023/12/21 10:39:57;;;;;;;8.17;7.37;;;;;;;12.50;58.87;98666.25;5093506;28;20739;-67
2023/12/21 10:42:26;;;;;;;11.13;9.23;;;;;;;12.69;59.18;98681.94;5094853;28;20197;-67
2023/12/21 10:44:52;;;;;;;8.73;7.83;;;;;;;12.78;58.78;98680.53;5081976;28;20206;-66
2023/12/21 10:47:19;;;;;;;11.00;7.50;;;;;;;12.89;56.92;98677.09;5082360;28;20327;-65
2023/12/21 10:49:46;;;;;;;7.43;6.80;;;;;;;12.90;53.97;98685.91;5082669;28;20272;-66
2023/12/21 10:52:14;;;;;;;10.57;7.13;;;;;;;12.90;54.14;98676.03;5086539;28;20663;-67
2023/12/21 10:54:42;;;;;;;10.43;7.37;;;;;;;12.93;53.87;98662.25;5091915;28;20750;-68
2023/12/21 10:57:09;;;;;;;10.30;8.10;;;;;;;13.18;54.63;98670.88;5092193;28;20282;-67
2023/12/21 10:59:38;;;;;;;8.00;7.20;;;;;;;13.05;53.82;98676.44;5088565;28;20257;-67
2023/12/21 11:02:07;;;;;;;11.23;8.23;;;;;;;12.92;53.69;98670.50;5075211;28;20187;-66
2023/12/21 11:04:36;;;;;;;12.43;7.53;;;;;;;12.84;53.91;98663.66;5074249;28;20235;-67
2023/12/21 11:07:05;;;;;;;9.13;6.87;;;;;;;12.61;53.84;98663.63;5075201;28;20195;-67
2023/12/21 11:09:33;;;;;;;10.83;7.20;;;;;;;12.47;54.30;98667.53;5088037;28;20231;-69
2023/12/21 11:12:01;;;;;;;14.67;7.47;;;;;;;12.57;53.54;98662.44;5092541;28;20224;-69
2023/12/21 11:14:28;;;;;;;10.60;7.47;;;;;;;12.59;54.53;98670.22;5091612;28;20203;-70
2023/12/21 11:16:59;;;;;;;10.80;7.30;;;;;;;12.72;54.72;98659.34;5072832;28;20199;-68
2023/12/21 11:19:31;;;;;;;7.67;7.00;;;;;;;12.61;54.40;98647.63;5071585;28;20217;-68
2023/12/21 11:21:58;;;;;;;8.33;7.53;;;;;;;12.59;54.81;98648.91;5068986;28;20217;-67
2023/12/21 11:24:25;;;;;;;8.13;7.43;;;;;;;12.65;54.48;98639.97;5069269;28;20260;-68
2023/12/21 11:26:52;;;;;;;6.67;6.00;;;;;;;12.58;54.96;98637.41;5069797;28;20687;-67